• Join FlightAware (Why Join?)
  • Login
  • US Flag 
09:50AM EDT


 

Airport Tracker/Info


-or-


 

Live Flight TrackerFlight Track Log ✈ AAL2274 ✈ 28-Apr-2012 ✈ KDFW - KTUL

Flight Track Log - Related Links

Times and Time Zones

All times are in EDT time to prevent confusion due to time zone crossing. See the AAL2274 flight status page for this flight to view local times or setup timezone preferences in your user account.

Time Position Orientation Groundspeed Altitude Reporting Facility
EDT Latitude Longitude Course Direction KTS MPH feet Rate Location/Type
06:55PM 32.8687 -97.0260 336° Northwest  Level FlightAware Approximate
06:55PM 32.8794 -97.0317 172° South 140 161 1,900  Level FAA TRACON SMA TRACON (SMA)
06:56PM 32.8450 -97.0258 156° South 191 220 3,500 2,760 Climbing FAA TRACON SMA TRACON (SMA)
06:57PM 32.8117 -97.0081 155° Southeast 191 220 5,600 2,820 Climbing FAA TRACON SMA TRACON (SMA)
06:57PM 32.7808 -96.9911 106° East 201 231 7,300 2,340 Climbing FAA TRACON SMA TRACON (SMA)
06:58PM 32.7689 -96.9419 92° East 241 277 8,800 1,920 Climbing FAA TRACON SMA TRACON (SMA)
06:59PM 32.7669 -96.8800 73° East 283 326 9,900 1,980 Climbing FAA TRACON SMA TRACON (SMA)
06:59PM 32.7822 -96.8208 16° North 327 376 11,400 2,460 Climbing FAA TRACON SMA TRACON (SMA)
07:00PM 32.8436 -96.7994 351° North 348 400 13,200 2,400 Climbing FAA TRACON SMA TRACON (SMA)
07:01PM 32.9133 -96.8133 347° North 367 422 14,700 2,160 Climbing FAA TRACON SMA TRACON (SMA)
07:01PM 32.9808 -96.8317 346° North 404 465 16,100 2,220 Climbing FAA TRACON SMA TRACON (SMA)
07:02PM 33.0564 -96.8533 346° North 406 467 17,700 2,520 Climbing FAA TRACON SMA TRACON (SMA)
07:03PM 33.1353 -96.8764 347° North 421 484 19,500 2,220 Climbing FAA TRACON SMA TRACON (SMA)
07:03PM 33.2167 -96.8989 347° North 435 501 20,800 1,800 Climbing FAA TRACON SMA TRACON (SMA)
07:04PM 33.2919 -96.9189 347° North 449 517 22,000 2,040 Climbing FAA TRACON SMA TRACON (SMA)
07:05PM 33.3783 -96.9431 354° North 460 529 23,500 2,220 Climbing FAA TRACON SMA TRACON (SMA)
07:05PM 33.4675 -96.9542 18° North 471 542 24,900 2,280 Climbing FAA TRACON SMA TRACON (SMA)
07:06PM 33.5467 -96.9233 20° North 486 559 26,600 2,220 Climbing FAA TRACON SMA TRACON (SMA)
07:07PM 33.6339 -96.8850 19° North 482 555 27,900 1,920 Climbing FAA TRACON SMA TRACON (SMA)
07:07PM 33.7219 -96.8494 18° North 482 555 29,200 1,800 Climbing FAA TRACON SMA TRACON (SMA)
07:08PM 33.8008 -96.8181 21° North 483 556 30,300 1,440 Climbing FAA TRACON SMA TRACON (SMA)
07:09PM 33.8756 -96.7831 19° North 476 548 31,000 420 Climbing Fort Worth Center
07:10PM 34.0003 -96.7319 20° North 481 554 31,000  Level Fort Worth Center
07:11PM 34.1067 -96.6861 19° North 474 545 31,000  Level Fort Worth Center
07:12PM 34.2336 -96.6322 18° North 466 536 31,000 -420 Level Fort Worth Center
07:13PM 34.3606 -96.5808 19° North 466 536 30,200 -900 Descending Fort Worth Center
07:14PM 34.4853 -96.5292 20° North 466 536 29,200 -1,020 Descending Fort Worth Center
07:15PM 34.6142 -96.4725 19° North 471 542 28,200 -1,500 Descending Fort Worth Center
07:16PM 34.7536 -96.4153 20° North 476 548 26,300 -1,920 Descending Fort Worth Center
07:17PM 34.8825 -96.3581 20° North 481 554 24,400 -1,200 Descending Fort Worth Center
07:18PM 35.0114 -96.3008 19° North 486 559 24,000 -1,020 Descending Fort Worth Center
07:19PM 35.1361 -96.2483 18° North 481 554 22,400 -1,920 Descending Fort Worth Center
07:20PM 35.2606 -96.1983 15° North 475 547 20,200 -2,100 Descending Fort Worth Center
07:22PM 35.5492 -96.1017 North 428 493 15,300 -2,040 Descending Kansas City Center
07:23PM 35.6725 -96.0836 North 420 483 13,100 -1,920 Descending Kansas City Center
07:24PM 35.7792 -96.0628 North 388 447 11,300 -1,380 Descending Kansas City Center
07:25PM 35.8669 -96.0517 North 338 389 10,500 -1,200 Descending Kansas City Center
07:26PM 35.9508 -96.0378 North 321 369 9,200 -1,500 Descending Kansas City Center
07:27PM 36.0342 -96.0317 North 303 349 7,600 -1,560 Descending Kansas City Center
07:28PM 36.1158 -96.0206 North 297 342 6,100 -1,740 Descending Kansas City Center
07:29PM 36.1972 -96.0194 11° North 283 326 4,100 -1,440 Descending Kansas City Center
07:30PM 36.2661 -96.0028 11° North 248 285 3,200 -900 Descending Kansas City Center